createdAt,value
2022-09-14T00:02:33.954Z,100130.44
2022-09-14T00:07:36.318Z,100132.88
2022-09-14T00:12:38.309Z,100124.94
2022-09-14T00:17:40.278Z,100119.44
2022-09-14T00:22:42.105Z,100109.69
2022-09-14T00:27:43.839Z,100101.38
2022-09-14T00:32:45.765Z,100102.22
2022-09-14T00:37:49.672Z,100095.88
2022-09-14T00:42:51.971Z,100088.78
2022-09-14T00:47:54.357Z,100078.16
2022-09-14T00:52:57.097Z,100069.13
2022-09-14T00:57:59.622Z,100059.66
2022-09-14T01:03:02.169Z,100059.22
2022-09-14T01:08:52.177Z,100061.88
2022-09-14T01:14:13.662Z,100072.25
2022-09-14T01:19:32.182Z,100068.97
2022-09-14T01:24:46.088Z,100065.75
2022-09-14T01:29:58.053Z,100072.94
2022-09-14T01:35:05.938Z,100078.31
2022-09-14T01:40:18.339Z,100065.44
2022-09-14T01:45:22.728Z,100071.38
2022-09-14T01:50:56.917Z,100093.44
2022-09-14T01:56:03.669Z,100101.91
2022-09-14T02:01:07.868Z,100088.47
2022-09-14T02:06:19.567Z,100078.44
2022-09-14T02:11:21.671Z,100069.94
2022-09-14T02:16:25.035Z,100059.66
2022-09-14T02:21:31.773Z,100056.53
2022-09-14T02:26:34.123Z,100056.69
2022-09-14T02:31:53.280Z,100047.06
2022-09-14T02:37:04.314Z,100037.47
2022-09-14T02:42:23.128Z,100028.97
2022-09-14T02:47:55.682Z,100021.34
2022-09-14T02:53:05.119Z,100012.56
2022-09-14T02:58:15.106Z,100002.69
2022-09-14T03:03:22.027Z,100006.78
2022-09-14T03:08:25.745Z,100005.81
2022-09-14T03:13:27.654Z,100002.97
2022-09-14T03:18:29.938Z,100004.38
2022-09-14T03:23:36.408Z,100010.31
2022-09-14T03:28:38.843Z,99995.63
2022-09-14T03:33:41.547Z,99990.41
2022-09-14T03:38:48.648Z,99987.84
2022-09-14T03:43:50.663Z,99982.47
2022-09-14T03:48:54.426Z,99981.22
2022-09-14T03:53:56.215Z,99973.28
2022-09-14T03:58:57.899Z,99978.97
2022-09-14T04:03:59.623Z,99974.44
2022-09-14T04:09:01.342Z,99977.25
2022-09-14T04:14:05.471Z,99965.38
2022-09-14T04:19:07.692Z,99962.69
2022-09-14T04:24:16.002Z,99973.88
2022-09-14T04:29:18.018Z,99971.75
2022-09-14T04:34:19.872Z,99972.44
2022-09-14T04:39:21.814Z,99974.13
2022-09-14T04:44:23.745Z,99972.00
2022-09-14T04:49:25.923Z,99969.31
2022-09-14T04:54:27.633Z,99962.84
2022-09-14T04:59:29.453Z,99960.00
2022-09-14T05:04:31.166Z,99956.47
2022-09-14T05:09:32.886Z,99965.38
2022-09-14T05:14:34.638Z,99970.47
2022-09-14T05:19:36.552Z,99966.38
2022-09-14T05:24:38.629Z,99963.38
2022-09-14T05:29:40.737Z,99973.75
2022-09-14T05:34:42.626Z,99971.44
2022-09-14T05:39:44.760Z,99964.09
2022-09-14T05:44:46.658Z,99954.63
2022-09-14T05:49:48.811Z,99949.84
2022-09-14T05:54:51.042Z,99947.00
2022-09-14T05:59:52.967Z,99942.19
2022-09-14T06:04:54.924Z,99933.59
2022-09-14T06:09:57.027Z,99937.81
2022-09-14T06:14:58.973Z,99947.28
2022-09-14T06:20:04.404Z,99944.03
2022-09-14T06:25:07.194Z,99947.16
2022-09-14T06:30:09.593Z,99930.47
2022-09-14T06:35:12.574Z,99927.50
2022-09-14T06:40:14.871Z,99923.81
2022-09-14T06:45:16.777Z,99920.84
2022-09-14T06:50:18.878Z,99923.69
2022-09-14T06:55:20.680Z,99925.78
2022-09-14T07:00:22.582Z,99929.47
2022-09-14T07:05:24.455Z,99916.91
2022-09-14T07:10:28.471Z,99923.81
2022-09-14T07:15:30.265Z,99924.38
2022-09-14T07:20:33.699Z,99926.38
2022-09-14T07:25:35.603Z,99925.97
2022-09-14T07:30:39.004Z,99929.47
2022-09-14T07:35:40.990Z,99926.06
2022-09-14T07:40:43.004Z,99924.25
2022-09-14T07:45:44.787Z,99924.25
2022-09-14T07:50:47.412Z,99929.19
2022-09-14T07:55:49.452Z,99945.56
2022-09-14T08:00:51.460Z,99947.72
2022-09-14T08:06:01.988Z,99947.00
2022-09-14T08:11:19.945Z,99939.94
2022-09-14T08:16:22.780Z,99930.19
2022-09-14T08:21:25.546Z,99932.31
2022-09-14T08:26:27.935Z,99933.56
2022-09-14T08:31:29.819Z,99939.09
2022-09-14T08:36:35.466Z,99935.53
2022-09-14T08:41:46.453Z,99943.88
2022-09-14T08:46:49.891Z,99940.22
2022-09-14T08:51:52.265Z,99944.03
2022-09-14T08:57:12.829Z,99948.84
2022-09-14T09:02:22.514Z,99942.91
2022-09-14T09:07:42.106Z,99946.13
2022-09-14T09:12:51.769Z,99951.78
2022-09-14T09:18:22.718Z,99937.81
2022-09-14T09:23:27.621Z,99937.25
2022-09-14T09:28:30.152Z,99946.28
2022-09-14T09:33:32.383Z,99950.94
2022-09-14T09:38:34.892Z,99951.22
2022-09-14T09:43:58.587Z,99936.97
2022-09-14T09:49:05.259Z,99952.94
2022-09-14T09:54:13.459Z,99948.00
2022-09-14T09:59:35.642Z,99927.50
2022-09-14T10:04:37.581Z,99919.88
2022-09-14T10:09:39.632Z,99899.50
2022-09-14T10:14:42.104Z,99890.75
2022-09-14T10:19:52.500Z,99913.53
2022-09-14T10:25:15.506Z,99911.25
2022-09-14T10:30:41.239Z,99902.47
2022-09-14T10:36:05.081Z,99914.91
2022-09-14T10:41:40.851Z,99911.41
2022-09-14T10:47:10.090Z,99915.91
2022-09-14T10:52:17.101Z,99922.41
2022-09-14T10:57:49.477Z,99923.69
2022-09-14T11:03:10.274Z,99917.31
2022-09-14T11:08:21.232Z,99903.31
2022-09-14T11:13:41.986Z,99894.44
2022-09-14T11:19:03.153Z,99890.69
2022-09-14T11:24:54.186Z,99893.56
2022-09-14T11:30:37.346Z,99897.56
2022-09-14T11:35:46.445Z,99887.97
2022-09-14T11:41:04.560Z,99898.91
2022-09-14T11:46:08.176Z,99897.59
2022-09-14T11:51:15.638Z,99909.38
2022-09-14T11:56:30.528Z,99903.63
2022-09-14T12:01:37.165Z,99927.81
2022-09-14T12:06:39.004Z,99930.38
2022-09-14T12:11:42.552Z,99929.41
2022-09-14T12:17:37.799Z,99917.00
2022-09-14T12:22:38.098Z,99916.00
2022-09-14T12:27:42.619Z,99895.03
2022-09-14T12:32:44.502Z,99891.84
2022-09-14T12:37:46.413Z,99906.50
2022-09-14T12:42:48.516Z,99905.78
2022-09-14T12:47:52.198Z,99904.16
2022-09-14T12:53:22.146Z,99887.91
2022-09-14T12:58:34.390Z,99885.47
2022-09-14T13:03:54.443Z,99882.59
2022-09-14T13:08:58.932Z,99877.03
2022-09-14T13:14:02.249Z,99868.22
2022-09-14T13:19:10.093Z,99888.13
2022-09-14T13:24:44.967Z,99875.44
2022-09-14T13:29:47.980Z,99868.03
2022-09-14T13:34:50.281Z,99861.94
2022-09-14T13:39:54.930Z,99862.19
2022-09-14T13:44:57.160Z,99852.19
2022-09-14T13:50:00.648Z,99850.84
2022-09-14T13:55:23.434Z,99845.25
2022-09-14T14:00:26.114Z,99821.09
2022-09-14T14:05:32.527Z,99804.53
2022-09-14T14:10:39.101Z,99815.72
2022-09-14T14:15:43.575Z,99816.31
2022-09-14T14:20:45.478Z,99818.19
2022-09-14T14:25:54.673Z,99818.69
2022-09-14T14:31:07.716Z,99813.91
2022-09-14T14:36:11.029Z,99817.84
2022-09-14T14:41:19.376Z,99820.69
2022-09-14T14:46:21.383Z,99817.84
2022-09-14T14:51:23.256Z,99828.03
2022-09-14T14:56:25.474Z,99830.81
2022-09-14T15:01:27.473Z,99830.69
2022-09-14T15:06:29.815Z,99841.72
2022-09-14T15:11:32.061Z,99844.28
2022-09-14T15:16:34.688Z,99838.38
2022-09-14T15:21:41.022Z,99832.75
2022-09-14T15:26:43.043Z,99844.72
2022-09-14T15:31:44.841Z,99846.72
2022-09-14T15:36:51.852Z,99853.22
2022-09-14T15:41:54.782Z,99862.81
2022-09-14T15:46:57.476Z,99857.25
2022-09-14T15:51:59.445Z,99856.66
2022-09-14T15:57:01.588Z,99871.50
2022-09-14T16:02:04.496Z,99872.63
2022-09-14T16:07:10.144Z,99878.19
2022-09-14T16:12:13.267Z,99884.44
2022-09-14T16:17:15.820Z,99886.91
2022-09-14T16:22:17.809Z,99875.47
2022-09-14T16:27:19.813Z,99871.41
2022-09-14T16:32:22.398Z,99864.28
2022-09-14T16:37:24.300Z,99847.78
2022-09-14T16:42:26.089Z,99851.06
2022-09-14T16:47:28.355Z,99845.81
2022-09-14T16:52:30.375Z,99847.13
2022-09-14T16:57:32.834Z,99841.91
2022-09-14T17:02:35.340Z,99860.53
2022-09-14T17:07:37.508Z,99865.88
2022-09-14T17:12:39.363Z,99866.72
2022-09-14T17:17:41.142Z,99869.56
2022-09-14T17:22:42.976Z,99881.00
2022-09-14T17:27:44.901Z,99891.16
2022-09-14T17:32:46.743Z,99884.94
2022-09-14T17:37:48.617Z,99880.84
2022-09-14T17:42:50.439Z,99876.47
2022-09-14T17:47:52.474Z,99877.06
2022-09-14T17:52:54.500Z,99887.63
2022-09-14T17:57:56.501Z,99890.84
2022-09-14T18:02:59.146Z,99882.81
2022-09-14T18:08:01.368Z,99883.41
2022-09-14T18:13:03.434Z,99893.16
2022-09-14T18:18:06.205Z,99888.88
2022-09-14T18:23:08.955Z,99901.63
2022-09-14T18:28:10.839Z,99906.94
2022-09-14T18:33:12.746Z,99911.78
2022-09-14T18:38:14.635Z,99921.53
2022-09-14T18:43:17.214Z,99905.59
2022-09-14T18:48:19.085Z,99917.03
2022-09-14T18:53:20.903Z,99917.88
2022-09-14T18:58:22.774Z,99904.47
2022-09-14T19:03:25.168Z,99901.78
2022-09-14T19:08:28.558Z,99915.22
2022-09-14T19:13:30.462Z,99917.19
2022-09-14T19:18:32.371Z,99909.13
2022-09-14T19:23:34.786Z,99927.91
2022-09-14T19:28:37.794Z,99928.31
2022-09-14T19:33:45.063Z,99933.84
2022-09-14T19:38:49.026Z,99944.97
2022-09-14T19:43:50.903Z,99953.72
2022-09-14T19:48:53.480Z,99944.25
2022-09-14T19:53:57.752Z,99950.50
2022-09-14T19:59:02.371Z,99958.25
2022-09-14T20:04:05.636Z,99961.78
2022-09-14T20:09:21.486Z,99971.47
2022-09-14T20:14:25.530Z,99957.81
2022-09-14T20:19:29.343Z,99956.69
2022-09-14T20:24:32.546Z,99959.38
2022-09-14T20:29:36.102Z,99956.97
2022-09-14T20:34:37.922Z,99954.97
2022-09-14T20:39:40.141Z,99967.13
2022-09-14T20:44:42.205Z,99963.03
2022-09-14T20:49:44.106Z,99969.25
2022-09-14T20:54:46.095Z,99977.00
2022-09-14T20:59:48.167Z,99981.66
2022-09-14T21:04:50.568Z,99998.47
2022-09-14T21:09:52.558Z,99999.56
2022-09-14T21:14:54.813Z,100007.78
2022-09-14T21:19:56.607Z,100012.44
2022-09-14T21:24:58.550Z,100011.59
2022-09-14T21:30:00.351Z,100010.47
2022-09-14T21:35:02.070Z,100010.34
2022-09-14T21:40:04.195Z,100015.97
2022-09-14T21:45:06.478Z,100019.50
2022-09-14T21:50:08.783Z,100027.69
2022-09-14T21:55:11.419Z,100038.28
2022-09-14T22:00:14.057Z,100037.97
2022-09-14T22:05:16.131Z,100047.16
2022-09-14T22:10:18.006Z,100049.13
2022-09-14T22:15:19.746Z,100040.38
2022-09-14T22:20:21.602Z,100052.97
2022-09-14T22:25:25.291Z,100050.84
2022-09-14T22:30:27.295Z,100069.03
2022-09-14T22:35:29.140Z,100065.94
2022-09-14T22:40:31.582Z,100070.31
2022-09-14T22:45:33.297Z,100064.69
2022-09-14T22:50:35.411Z,100060.19
2022-09-14T22:55:38.305Z,100066.38
2022-09-14T23:00:41.037Z,100069.88
2022-09-14T23:05:51.745Z,100078.91
2022-09-14T23:10:55.047Z,100078.75
2022-09-14T23:15:56.966Z,100085.53
2022-09-14T23:21:03.187Z,100097.69
2022-09-14T23:26:07.317Z,100105.56
2022-09-14T23:31:09.112Z,100103.06
2022-09-14T23:36:10.851Z,100095.44
2022-09-14T23:41:12.555Z,100101.81
2022-09-14T23:46:15.258Z,100096.69
2022-09-14T23:51:17.248Z,100106.09
2022-09-14T23:56:19.095Z,100098.78
